Time,TemperatureF,DewpointF,PressureIn,WindDirection,WindDirectionDegrees,WindSpeedMPH,WindSpeedGustMPH,Humidity,HourlyPrecipIn,Conditions,Clouds,dailyrainin,SoftwareType,DateUTC
2013-01-20 00:03:00,35.3,27.5,30.21,SE,135,0.0,0.7,73,0.00,,,0.00,WUHU216HW,2013-01-20 08:03:00,
2013-01-20 00:08:00,35.3,27.5,30.21,SE,135,0.0,0.4,73,0.00,,,0.00,WUHU216HW,2013-01-20 08:08:00,
2013-01-20 00:13:00,35.1,27.3,30.21,SE,135,0.0,0.4,73,0.00,,,0.00,WUHU216HW,2013-01-20 08:13:00,
2013-01-20 00:18:00,34.9,27.1,30.21,East,90,0.0,1.3,73,0.00,,,0.00,WUHU216HW,2013-01-20 08:18:00,
2013-01-20 00:23:00,34.9,27.4,30.21,East,90,0.0,1.3,74,0.00,,,0.00,WUHU216HW,2013-01-20 08:23:00,
2013-01-20 00:28:00,34.7,27.2,30.21,East,90,0.0,0.7,74,0.00,,,0.00,WUHU216HW,2013-01-20 08:28:00,
2013-01-20 00:33:00,34.7,27.2,30.21,East,90,0.0,0.7,74,0.00,,,0.00,WUHU216HW,2013-01-20 08:33:00,
2013-01-20 00:38:00,34.7,27.2,30.21,East,90,0.0,0.7,74,0.00,,,0.00,WUHU216HW,2013-01-20 08:38:00,
2013-01-20 00:43:00,34.6,27.0,30.21,ESE,113,0.0,0.4,74,0.00,,,0.00,WUHU216HW,2013-01-20 08:43:00,
2013-01-20 00:48:00,34.4,26.8,30.21,ESE,113,0.0,0.4,74,0.00,,,0.00,WUHU216HW,2013-01-20 08:48:00,
2013-01-20 00:53:00,34.2,26.6,30.21,ESE,113,0.0,0.0,74,0.00,,,0.00,WUHU216HW,2013-01-20 08:53:00,
2013-01-20 00:58:00,34.2,26.6,30.21,ESE,113,0.0,0.0,74,0.00,,,0.00,WUHU216HW,2013-01-20 08:58:00,
2013-01-20 01:03:00,34.0,26.5,30.21,ESE,113,0.0,0.0,74,0.00,,,0.00,WUHU216HW,2013-01-20 09:03:00,
2013-01-20 01:08:00,33.8,26.3,30.21,ESE,113,0.4,0.7,74,0.00,,,0.00,WUHU216HW,2013-01-20 09:08:00,
2013-01-20 01:13:00,33.7,26.2,30.21,ESE,113,0.9,0.9,74,0.00,,,0.00,WUHU216HW,2013-01-20 09:13:00,
2013-01-20 01:18:00,33.5,26.0,30.21,ESE,113,0.7,1.1,74,0.00,,,0.00,WUHU216HW,2013-01-20 09:18:00,
2013-01-20 01:23:00,33.5,26.0,30.21,SE,135,1.3,1.3,74,0.00,,,0.00,WUHU216HW,2013-01-20 09:23:00,
2013-01-20 01:28:00,33.5,26.0,30.21,SE,135,0.0,1.3,74,0.00,,,0.00,WUHU216HW,2013-01-20 09:28:00,
2013-01-20 01:33:00,33.5,26.0,30.21,SE,135,0.4,1.1,74,0.00,,,0.00,WUHU216HW,2013-01-20 09:33:00,
2013-01-20 01:38:00,33.5,26.0,30.22,SE,135,0.0,1.1,74,0.00,,,0.00,WUHU216HW,2013-01-20 09:38:00,
2013-01-20 01:43:00,33.5,26.0,30.21,SE,135,0.0,0.4,74,0.00,,,0.00,WUHU216HW,2013-01-20 09:43:00,
2013-01-20 01:48:00,33.5,26.3,30.21,SE,135,0.0,0.0,75,0.00,,,0.00,WUHU216HW,2013-01-20 09:48:00,
2013-01-20 01:53:00,33.5,26.3,30.21,SE,135,0.0,0.0,75,0.00,,,0.00,WUHU216HW,2013-01-20 09:53:00,
2013-01-20 01:58:00,33.3,26.2,30.20,SE,135,0.0,0.0,75,0.00,,,0.00,WUHU216HW,2013-01-20 09:58:00,
2013-01-20 02:03:00,33.1,25.7,30.20,SE,135,0.0,0.7,74,0.00,,,0.00,WUHU216HW,2013-01-20 10:03:00,
2013-01-20 02:08:00,33.1,25.7,30.21,SE,135,1.1,1.1,74,0.00,,,0.00,WUHU216HW,2013-01-20 10:08:00,
2013-01-20 02:13:00,32.9,25.5,30.21,SE,135,0.0,1.1,74,0.00,,,0.00,WUHU216HW,2013-01-20 10:13:00,
2013-01-20 02:18:00,32.8,25.4,30.21,SE,135,0.0,1.1,74,0.00,,,0.00,WUHU216HW,2013-01-20 10:18:00,
2013-01-20 02:23:00,32.6,25.2,30.21,ESE,113,0.2,1.8,74,0.00,,,0.00,WUHU216HW,2013-01-20 10:23:00,
2013-01-20 02:28:00,32.4,25.0,30.21,ESE,113,0.0,1.8,74,0.00,,,0.00,WUHU216HW,2013-01-20 10:28:00,
2013-01-20 02:33:00,32.4,25.4,30.21,SE,135,0.7,0.7,75,0.00,,,0.00,WUHU216HW,2013-01-20 10:33:00,
2013-01-20 02:38:00,32.4,25.4,30.21,SE,135,1.1,1.1,75,0.00,,,0.00,WUHU216HW,2013-01-20 10:38:00,
2013-01-20 02:43:00,32.2,25.2,30.21,SE,135,0.4,1.1,75,0.00,,,0.00,WUHU216HW,2013-01-20 10:43:00,
2013-01-20 02:48:00,32.0,25.0,30.21,SE,135,0.0,1.1,75,0.00,,,0.00,WUHU216HW,2013-01-20 10:48:00,
2013-01-20 02:53:00,32.0,25.0,30.21,SE,135,0.9,0.9,75,0.00,,,0.00,WUHU216HW,2013-01-20 10:53:00,
2013-01-20 02:58:00,32.0,25.0,30.21,SE,135,0.0,0.9,75,0.00,,,0.00,WUHU216HW,2013-01-20 10:58:00,
2013-01-20 03:03:00,31.9,25.2,30.22,SE,135,0.0,0.7,76,0.00,,,0.00,WUHU216HW,2013-01-20 11:03:00,
2013-01-20 03:08:00,31.7,25.0,30.21,SE,135,1.8,1.8,76,0.00,,,0.00,WUHU216HW,2013-01-20 11:08:00,
2013-01-20 03:13:00,31.5,24.5,30.21,SE,135,0.0,1.8,75,0.00,,,0.00,WUHU216HW,2013-01-20 11:13:00,
2013-01-20 03:18:00,31.3,24.7,30.21,SE,135,0.0,1.1,76,0.00,,,0.00,WUHU216HW,2013-01-20 11:18:00,
2013-01-20 03:23:00,31.3,24.7,30.21,SE,135,0.0,0.9,76,0.00,,,0.00,WUHU216HW,2013-01-20 11:23:00,
2013-01-20 03:28:00,31.3,24.7,30.21,SE,135,0.0,0.9,76,0.00,,,0.00,WUHU216HW,2013-01-20 11:28:00,
2013-01-20 03:33:00,31.1,24.5,30.21,SE,135,0.7,0.9,76,0.00,,,0.00,WUHU216HW,2013-01-20 11:33:00,
2013-01-20 03:38:00,31.1,24.5,30.20,SE,135,0.4,0.9,76,0.00,,,0.00,WUHU216HW,2013-01-20 11:38:00,
2013-01-20 03:43:00,31.1,24.5,30.21,SE,135,0.7,0.9,76,0.00,,,0.00,WUHU216HW,2013-01-20 11:43:00,
2013-01-20 03:48:00,31.1,24.5,30.20,SE,135,0.9,0.9,76,0.00,,,0.00,WUHU216HW,2013-01-20 11:48:00,
2013-01-20 03:53:00,31.1,24.5,30.20,SE,135,0.7,0.9,76,0.00,,,0.00,WUHU216HW,2013-01-20 11:53:00,
2013-01-20 03:58:00,31.0,24.3,30.20,SE,135,0.0,0.9,76,0.00,,,0.00,WUHU216HW,2013-01-20 11:58:00,
2013-01-20 04:03:00,31.1,24.5,30.20,SE,135,0.4,1.1,76,0.00,,,0.00,WUHU216HW,2013-01-20 12:03:00,
2013-01-20 04:08:00,31.0,24.3,30.20,SE,135,0.0,1.1,76,0.00,,,0.00,WUHU216HW,2013-01-20 12:08:00,
2013-01-20 04:13:00,31.0,24.3,30.20,SE,135,0.0,0.4,76,0.00,,,0.00,WUHU216HW,2013-01-20 12:13:00,
2013-01-20 04:18:00,31.0,24.3,30.20,SE,135,0.4,0.4,76,0.00,,,0.00,WUHU216HW,2013-01-20 12:18:00,
2013-01-20 04:23:00,30.6,24.0,30.20,SE,135,0.0,0.7,76,0.00,,,0.00,WUHU216HW,2013-01-20 12:23:00,
2013-01-20 04:28:00,30.6,24.0,30.20,SE,135,0.4,0.7,76,0.00,,,0.00,WUHU216HW,2013-01-20 12:28:00,
2013-01-20 04:33:00,30.6,24.0,30.20,ESE,113,0.0,0.7,76,0.00,,,0.00,WUHU216HW,2013-01-20 12:33:00,
2013-01-20 04:38:00,30.6,24.0,30.20,ESE,113,0.0,0.7,76,0.00,,,0.00,WUHU216HW,2013-01-20 12:38:00,
2013-01-20 04:43:00,30.6,24.0,30.20,ESE,113,0.0,0.0,76,0.00,,,0.00,WUHU216HW,2013-01-20 12:43:00,
2013-01-20 04:48:00,30.4,23.8,30.20,ESE,113,0.0,0.0,76,0.00,,,0.00,WUHU216HW,2013-01-20 12:48:00,
2013-01-20 04:53:00,30.4,24.0,30.20,ESE,113,0.0,0.0,77,0.00,,,0.00,WUHU216HW,2013-01-20 12:53:00,
2013-01-20 04:58:00,30.2,23.6,30.20,ESE,113,0.0,0.0,76,0.00,,,0.00,WUHU216HW,2013-01-20 12:58:00,
2013-01-20 05:03:00,30.2,23.9,30.20,ESE,113,0.0,0.4,77,0.00,,,0.00,WUHU216HW,2013-01-20 13:03:00,
2013-01-20 05:08:00,30.2,23.9,30.20,ESE,113,0.0,0.4,77,0.00,,,0.00,WUHU216HW,2013-01-20 13:08:00,
2013-01-20 05:13:00,30.1,23.7,30.20,ESE,113,0.0,0.0,77,0.00,,,0.00,WUHU216HW,2013-01-20 13:13:00,
2013-01-20 05:18:00,30.1,23.7,30.20,ESE,113,0.0,0.0,77,0.00,,,0.00,WUHU216HW,2013-01-20 13:18:00,
2013-01-20 05:23:00,30.1,23.7,30.20,ESE,113,0.0,0.0,77,0.00,,,0.00,WUHU216HW,2013-01-20 13:23:00,
2013-01-20 05:28:00,29.9,23.5,30.20,ESE,113,0.4,1.1,77,0.00,,,0.00,WUHU216HW,2013-01-20 13:28:00,
2013-01-20 05:33:00,29.7,23.1,30.20,ESE,113,0.4,1.1,76,0.00,,,0.00,WUHU216HW,2013-01-20 13:33:00,
2013-01-20 05:38:00,29.5,22.9,30.20,ESE,113,0.4,0.4,76,0.00,,,0.00,WUHU216HW,2013-01-20 13:38:00,
2013-01-20 05:43:00,29.5,22.9,30.20,ESE,113,0.0,1.1,76,0.00,,,0.00,WUHU216HW,2013-01-20 13:43:00,
2013-01-20 05:48:00,29.3,23.0,30.20,East,90,1.1,1.3,77,0.00,,,0.00,WUHU216HW,2013-01-20 13:48:00,
2013-01-20 05:53:00,29.3,23.0,30.20,East,90,0.7,1.3,77,0.00,,,0.00,WUHU216HW,2013-01-20 13:53:00,
2013-01-20 05:58:00,29.3,23.0,30.20,SE,135,0.9,0.9,77,0.00,,,0.00,WUHU216HW,2013-01-20 13:58:00,
2013-01-20 06:03:00,29.2,22.9,30.20,SE,135,0.4,1.8,77,0.00,,,0.00,WUHU216HW,2013-01-20 14:03:00,
2013-01-20 06:08:00,29.2,22.9,30.20,ESE,113,0.0,1.8,77,0.00,,,0.00,WUHU216HW,2013-01-20 14:08:00,
2013-01-20 06:13:00,29.2,23.1,30.20,NE,45,0.4,1.8,78,0.00,,,0.00,WUHU216HW,2013-01-20 14:13:00,
2013-01-20 06:18:00,29.2,23.1,30.20,SE,135,1.8,1.8,78,0.00,,,0.00,WUHU216HW,2013-01-20 14:18:00,
2013-01-20 06:23:00,29.3,23.3,30.20,ESE,113,0.2,1.8,78,0.00,,,0.00,WUHU216HW,2013-01-20 14:23:00,
2013-01-20 06:28:00,29.3,23.3,30.20,ESE,113,0.7,1.3,78,0.00,,,0.00,WUHU216HW,2013-01-20 14:28:00,
2013-01-20 06:33:00,29.3,23.3,30.20,ESE,113,0.0,0.7,78,0.00,,,0.00,WUHU216HW,2013-01-20 14:33:00,
2013-01-20 06:38:00,29.3,23.3,30.20,WSW,248,1.1,1.1,78,0.00,,,0.00,WUHU216HW,2013-01-20 14:38:00,
2013-01-20 06:43:00,29.3,23.3,30.20,WSW,248,0.0,1.1,78,0.00,,,0.00,WUHU216HW,2013-01-20 14:43:00,
2013-01-20 06:48:00,29.3,23.3,30.20,WSW,248,0.0,1.1,78,0.00,,,0.00,WUHU216HW,2013-01-20 14:48:00,
2013-01-20 06:53:00,29.3,23.3,30.20,South,180,0.7,0.9,78,0.00,,,0.00,WUHU216HW,2013-01-20 14:53:00,
2013-01-20 06:58:00,29.2,23.1,30.20,SSW,203,0.9,1.1,78,0.00,,,0.00,WUHU216HW,2013-01-20 14:58:00,
2013-01-20 07:03:00,29.2,22.9,30.20,SSW,203,0.4,1.1,77,0.00,,,0.00,WUHU216HW,2013-01-20 15:03:00,
2013-01-20 07:08:00,29.2,23.1,30.20,SSW,203,1.8,1.8,78,0.00,,,0.00,WUHU216HW,2013-01-20 15:08:00,
2013-01-20 07:13:00,28.8,22.8,30.20,SSE,158,2.2,2.2,78,0.00,,,0.00,WUHU216HW,2013-01-20 15:13:00,
2013-01-20 07:18:00,28.8,22.8,30.20,SW,225,1.3,2.2,78,0.00,,,0.00,WUHU216HW,2013-01-20 15:18:00,
2013-01-20 07:23:00,29.0,23.0,30.20,South,180,0.0,1.8,78,0.00,,,0.00,WUHU216HW,2013-01-20 15:23:00,
2013-01-20 07:28:00,29.0,23.0,30.20,South,180,0.9,1.6,78,0.00,,,0.00,WUHU216HW,2013-01-20 15:28:00,
2013-01-20 07:34:00,29.0,23.0,30.20,SSW,203,0.4,1.1,78,0.00,,,0.00,WUHU216HW,2013-01-20 15:34:00,
2013-01-20 07:39:00,28.8,22.8,30.20,SSW,203,0.9,1.6,78,0.00,,,0.00,WUHU216HW,2013-01-20 15:39:00,
2013-01-20 07:44:00,29.0,23.0,30.20,SSW,203,0.0,1.8,78,0.00,,,0.00,WUHU216HW,2013-01-20 15:44:00,
2013-01-20 07:49:00,29.2,23.1,30.20,North,0,0.0,1.8,78,0.00,,,0.00,WUHU216HW,2013-01-20 15:49:00,
2013-01-20 07:54:00,29.3,23.7,30.20,North,0,0.0,0.0,79,0.00,,,0.00,WUHU216HW,2013-01-20 15:54:00,
2013-01-20 07:59:00,29.7,23.9,30.20,North,0,0.0,0.0,79,0.00,,,0.00,WUHU216HW,2013-01-20 15:59:00,
2013-01-20 08:04:00,29.9,24.1,30.20,North,0,0.0,0.0,79,0.00,,,0.00,WUHU216HW,2013-01-20 16:04:00,
2013-01-20 08:09:00,30.2,24.5,30.20,North,0,0.0,0.0,79,0.00,,,0.00,WUHU216HW,2013-01-20 16:09:00,
2013-01-20 08:14:00,30.6,24.8,30.20,North,0,0.0,0.0,79,0.00,,,0.00,WUHU216HW,2013-01-20 16:14:00,
2013-01-20 08:19:00,30.8,25.0,30.20,North,0,0.0,0.0,79,0.00,,,0.00,WUHU216HW,2013-01-20 16:19:00,
2013-01-20 08:24:00,31.1,25.4,30.20,North,0,0.0,0.0,79,0.00,,,0.00,WUHU216HW,2013-01-20 16:24:00,
2013-01-20 08:29:00,31.7,26.3,30.20,North,0,0.0,0.0,80,0.00,,,0.00,WUHU216HW,2013-01-20 16:29:00,
2013-01-20 08:34:00,32.2,27.1,30.20,North,0,0.0,0.0,81,0.00,,,0.00,WUHU216HW,2013-01-20 16:34:00,
2013-01-20 08:39:00,32.9,27.7,30.21,North,0,0.0,0.0,81,0.00,,,0.00,WUHU216HW,2013-01-20 16:39:00,
2013-01-20 08:44:00,33.5,28.5,30.20,North,0,0.0,0.0,82,0.00,,,0.00,WUHU216HW,2013-01-20 16:44:00,
2013-01-20 08:49:00,34.0,29.4,30.20,North,0,0.0,0.0,83,0.00,,,0.00,WUHU216HW,2013-01-20 16:49:00,
2013-01-20 08:54:00,34.6,29.5,30.21,North,0,0.0,0.0,82,0.00,,,0.00,WUHU216HW,2013-01-20 16:54:00,
2013-01-20 08:59:00,35.1,30.4,30.21,North,0,0.0,0.0,83,0.00,,,0.00,WUHU216HW,2013-01-20 16:59:00,
2013-01-20 09:04:00,35.8,31.2,30.21,SW,225,0.9,0.9,83,0.00,,,0.00,WUHU216HW,2013-01-20 17:04:00,
2013-01-20 09:09:00,36.4,31.3,30.21,West,270,0.9,1.8,82,0.00,,,0.00,WUHU216HW,2013-01-20 17:09:00,
2013-01-20 09:14:00,37.1,32.0,30.21,SW,225,0.4,2.2,82,0.00,,,0.00,WUHU216HW,2013-01-20 17:14:00,
2013-01-20 09:19:00,37.8,32.8,30.21,WSW,248,1.3,2.2,82,0.00,,,0.00,WUHU216HW,2013-01-20 17:19:00,
2013-01-20 09:24:00,38.5,33.5,30.21,WSW,248,0.7,1.8,82,0.00,,,0.00,WUHU216HW,2013-01-20 17:24:00,
2013-01-20 09:29:00,39.2,34.2,30.22,West,270,0.9,1.8,82,0.00,,,0.00,WUHU216HW,2013-01-20 17:29:00,
2013-01-20 09:34:00,39.8,34.5,30.22,SW,225,1.3,1.3,81,0.00,,,0.00,WUHU216HW,2013-01-20 17:34:00,
2013-01-20 09:39:00,40.5,35.4,30.21,NNE,23,0.4,1.3,82,0.00,,,0.00,WUHU216HW,2013-01-20 17:39:00,
2013-01-20 09:44:00,42.5,37.0,30.22,NNE,23,4.7,4.7,81,0.00,,,0.00,WUHU216HW,2013-01-20 17:44:00,
2013-01-20 09:49:00,45.9,37.7,30.22,North,0,4.7,6.9,73,0.00,,,0.00,WUHU216HW,2013-01-20 17:49:00,
2013-01-20 09:54:00,47.3,38.1,30.22,NNE,23,6.7,8.1,70,0.00,,,0.00,WUHU216HW,2013-01-20 17:54:00,
2013-01-20 09:59:00,49.5,37.8,30.22,NNE,23,6.9,8.5,64,0.00,,,0.00,WUHU216HW,2013-01-20 17:59:00,
2013-01-20 10:04:00,50.8,37.4,30.22,NNE,23,3.8,8.5,60,0.00,,,0.00,WUHU216HW,2013-01-20 18:04:00,
2013-01-20 10:09:00,51.3,37.0,30.22,NE,45,5.1,7.6,58,0.00,,,0.00,WUHU216HW,2013-01-20 18:09:00,
2013-01-20 10:14:00,51.8,36.5,30.22,NE,45,5.1,7.6,56,0.00,,,0.00,WUHU216HW,2013-01-20 18:14:00,
2013-01-20 10:19:00,52.4,36.2,30.22,North,0,7.6,7.6,54,0.00,,,0.00,WUHU216HW,2013-01-20 18:19:00,
2013-01-20 10:24:00,52.9,35.7,30.22,North,0,4.3,7.6,52,0.00,,,0.00,WUHU216HW,2013-01-20 18:24:00,
2013-01-20 10:29:00,53.3,36.1,30.21,ENE,68,5.8,8.9,52,0.00,,,0.00,WUHU216HW,2013-01-20 18:29:00,
2013-01-20 10:34:00,53.8,35.1,30.21,NE,45,6.5,8.9,49,0.00,,,0.00,WUHU216HW,2013-01-20 18:34:00,
2013-01-20 10:39:00,54.2,34.3,30.21,NNE,23,6.9,7.4,47,0.00,,,0.00,WUHU216HW,2013-01-20 18:39:00,
2013-01-20 10:44:00,54.7,34.2,30.21,NE,45,7.2,8.5,46,0.00,,,0.00,WUHU216HW,2013-01-20 18:44:00,
2013-01-20 10:49:00,55.1,34.6,30.21,North,0,5.8,11.4,46,0.00,,,0.00,WUHU216HW,2013-01-20 18:49:00,
2013-01-20 10:54:00,55.3,34.1,30.21,NE,45,5.4,11.4,45,0.00,,,0.00,WUHU216HW,2013-01-20 18:54:00,
2013-01-20 10:59:00,55.4,34.8,30.21,NNE,23,8.9,8.9,46,0.00,,,0.00,WUHU216HW,2013-01-20 18:59:00,
2013-01-20 11:04:00,55.8,35.7,30.20,North,0,5.4,8.9,47,0.00,,,0.00,WUHU216HW,2013-01-20 19:04:00,
2013-01-20 11:09:00,56.0,34.8,30.20,NE,45,8.3,10.5,45,0.00,,,0.00,WUHU216HW,2013-01-20 19:09:00,
2013-01-20 11:14:00,56.0,34.8,30.20,NNE,23,4.5,10.5,45,0.00,,,0.00,WUHU216HW,2013-01-20 19:14:00,
2013-01-20 11:19:00,56.0,35.4,30.20,North,0,4.7,10.7,46,0.00,,,0.00,WUHU216HW,2013-01-20 19:19:00,
2013-01-20 11:24:00,56.2,36.6,30.20,NNE,23,4.7,10.7,48,0.00,,,0.00,WUHU216HW,2013-01-20 19:24:00,
2013-01-20 11:29:00,56.5,35.3,30.19,ENE,68,8.3,8.3,45,0.00,,,0.00,WUHU216HW,2013-01-20 19:29:00,
2013-01-20 11:34:00,56.5,34.7,30.19,ENE,68,6.3,12.1,44,0.00,,,0.00,WUHU216HW,2013-01-20 19:34:00,
2013-01-20 11:39:00,56.5,34.7,30.19,NE,45,9.8,12.1,44,0.00,,,0.00,WUHU216HW,2013-01-20 19:39:00,
2013-01-20 11:44:00,56.3,32.3,30.19,ENE,68,10.1,10.5,40,0.00,,,0.00,WUHU216HW,2013-01-20 19:44:00,
2013-01-20 11:49:00,56.3,31.6,30.19,NNE,23,11.9,11.9,39,0.00,,,0.00,WUHU216HW,2013-01-20 19:49:00,
2013-01-20 11:54:00,56.3,32.9,30.18,NNE,23,11.9,11.9,41,0.00,,,0.00,WUHU216HW,2013-01-20 19:54:00,
2013-01-20 11:59:00,56.2,31.4,30.18,NNE,23,11.9,11.9,39,0.00,,,0.00,WUHU216HW,2013-01-20 19:59:00,
2013-01-20 12:04:00,56.2,31.4,30.17,NNE,23,8.9,11.9,39,0.00,,,0.00,WUHU216HW,2013-01-20 20:04:00,
2013-01-20 12:09:00,56.3,32.9,30.17,North,0,7.6,11.9,41,0.00,,,0.00,WUHU216HW,2013-01-20 20:09:00,
2013-01-20 12:14:00,56.3,32.9,30.17,NNE,23,10.7,10.7,41,0.00,,,0.00,WUHU216HW,2013-01-20 20:14:00,
2013-01-20 12:19:00,56.5,31.1,30.16,NNE,23,8.7,11.2,38,0.00,,,0.00,WUHU216HW,2013-01-20 20:19:00,
2013-01-20 12:24:00,56.5,32.5,30.17,NE,45,7.6,11.2,40,0.00,,,0.00,WUHU216HW,2013-01-20 20:24:00,
2013-01-20 12:29:00,56.7,32.7,30.17,NNE,23,10.5,10.5,40,0.00,,,0.00,WUHU216HW,2013-01-20 20:29:00,
2013-01-20 12:34:00,56.7,32.0,30.17,NNE,23,8.9,11.4,39,0.00,,,0.00,WUHU216HW,2013-01-20 20:34:00,
2013-01-20 12:39:00,56.9,32.8,30.17,North,0,8.1,11.4,40,0.00,,,0.00,WUHU216HW,2013-01-20 20:39:00,
2013-01-20 12:44:00,57.2,33.1,30.16,North,0,9.2,9.2,40,0.00,,,0.00,WUHU216HW,2013-01-20 20:44:00,
2013-01-20 12:49:00,57.2,32.4,30.16,NNE,23,6.7,11.2,39,0.00,,,0.00,WUHU216HW,2013-01-20 20:49:00,
2013-01-20 12:54:00,57.2,32.4,30.16,NE,45,9.8,11.2,39,0.00,,,0.00,WUHU216HW,2013-01-20 20:54:00,
2013-01-20 12:59:00,57.4,33.3,30.15,East,90,6.9,11.6,40,0.00,,,0.00,WUHU216HW,2013-01-20 20:59:00,
2013-01-20 13:04:00,57.4,32.6,30.15,ENE,68,8.9,11.6,39,0.00,,,0.00,WUHU216HW,2013-01-20 21:04:00,
2013-01-20 13:09:00,57.4,32.6,30.15,ENE,68,11.6,11.6,39,0.00,,,0.00,WUHU216HW,2013-01-20 21:09:00,
2013-01-20 13:14:00,57.6,34.0,30.15,ENE,68,8.5,11.6,41,0.00,,,0.00,WUHU216HW,2013-01-20 21:14:00,
2013-01-20 13:19:00,57.6,33.5,30.15,NNE,23,8.9,11.2,40,0.00,,,0.00,WUHU216HW,2013-01-20 21:19:00,
2013-01-20 13:24:00,57.6,33.5,30.15,ENE,68,8.3,10.5,40,0.00,,,0.00,WUHU216HW,2013-01-20 21:24:00,
2013-01-20 13:29:00,57.6,32.8,30.15,NE,45,10.7,12.8,39,0.00,,,0.00,WUHU216HW,2013-01-20 21:29:00,
2013-01-20 13:34:00,57.6,33.5,30.15,NNE,23,10.5,12.8,40,0.00,,,0.00,WUHU216HW,2013-01-20 21:34:00,
2013-01-20 13:39:00,57.6,33.5,30.15,NE,45,10.1,14.3,40,0.00,,,0.00,WUHU216HW,2013-01-20 21:39:00,
2013-01-20 13:44:00,57.6,32.8,30.14,NE,45,11.0,14.3,39,0.00,,,0.00,WUHU216HW,2013-01-20 21:44:00,
2013-01-20 13:49:00,57.6,33.5,30.14,NE,45,11.2,11.9,40,0.00,,,0.00,WUHU216HW,2013-01-20 21:49:00,
2013-01-20 13:54:00,57.6,34.0,30.14,NNE,23,10.3,11.2,41,0.00,,,0.00,WUHU216HW,2013-01-20 21:54:00,
2013-01-20 13:59:00,57.4,34.5,30.14,NE,45,8.3,11.2,42,0.00,,,0.00,WUHU216HW,2013-01-20 21:59:00,
2013-01-20 14:04:00,57.4,35.6,30.14,NNE,23,10.1,11.4,44,0.00,,,0.00,WUHU216HW,2013-01-20 22:04:00,
2013-01-20 14:09:00,57.6,35.7,30.14,NE,45,11.2,11.4,44,0.00,,,0.00,WUHU216HW,2013-01-20 22:09:00,
2013-01-20 14:14:00,57.6,35.7,30.13,NNE,23,12.5,12.5,44,0.00,,,0.00,WUHU216HW,2013-01-20 22:14:00,
2013-01-20 14:19:00,57.6,36.4,30.13,NNE,23,9.6,12.5,45,0.00,,,0.00,WUHU216HW,2013-01-20 22:19:00,
2013-01-20 14:24:00,57.4,36.2,30.13,NE,45,11.4,12.5,45,0.00,,,0.00,WUHU216HW,2013-01-20 22:24:00,
2013-01-20 14:29:00,57.4,36.2,30.13,NNE,23,10.7,13.0,45,0.00,,,0.00,WUHU216HW,2013-01-20 22:29:00,
2013-01-20 14:34:00,57.2,37.2,30.13,NE,45,8.5,13.0,47,0.00,,,0.00,WUHU216HW,2013-01-20 22:34:00,
2013-01-20 14:39:00,57.4,36.2,30.12,NNE,23,11.0,12.3,45,0.00,,,0.00,WUHU216HW,2013-01-20 22:39:00,
2013-01-20 14:44:00,57.4,35.6,30.12,NNE,23,9.8,12.3,44,0.00,,,0.00,WUHU216HW,2013-01-20 22:44:00,
2013-01-20 14:49:00,57.4,36.2,30.12,NE,45,12.1,12.1,45,0.00,,,0.00,WUHU216HW,2013-01-20 22:49:00,
2013-01-20 14:54:00,57.4,36.7,30.12,North,0,7.8,12.1,46,0.00,,,0.00,WUHU216HW,2013-01-20 22:54:00,
2013-01-20 14:59:00,57.6,36.4,30.12,NNE,23,6.9,9.8,45,0.00,,,0.00,WUHU216HW,2013-01-20 22:59:00,
2013-01-20 15:04:00,57.6,36.9,30.13,NNE,23,9.2,9.8,46,0.00,,,0.00,WUHU216HW,2013-01-20 23:04:00,
2013-01-20 15:09:00,57.4,36.7,30.13,North,0,6.5,9.2,46,0.00,,,0.00,WUHU216HW,2013-01-20 23:09:00,
2013-01-20 15:14:00,57.2,37.2,30.13,NNE,23,7.4,11.4,47,0.00,,,0.00,WUHU216HW,2013-01-20 23:14:00,
2013-01-20 15:19:00,57.2,36.5,30.13,NNE,23,7.6,11.4,46,0.00,,,0.00,WUHU216HW,2013-01-20 23:19:00,
2013-01-20 15:24:00,57.1,37.0,30.13,North,0,6.0,10.5,47,0.00,,,0.00,WUHU216HW,2013-01-20 23:24:00,
2013-01-20 15:29:00,57.2,36.5,30.13,North,0,6.3,7.6,46,0.00,,,0.00,WUHU216HW,2013-01-20 23:29:00,
2013-01-20 15:34:00,57.1,36.4,30.14,North,0,6.9,6.9,46,0.00,,,0.00,WUHU216HW,2013-01-20 23:34:00,
2013-01-20 15:39:00,57.1,36.4,30.13,NNE,23,8.7,8.9,46,0.00,,,0.00,WUHU216HW,2013-01-20 23:39:00,
2013-01-20 15:44:00,57.1,36.4,30.13,NNE,23,5.8,8.9,46,0.00,,,0.00,WUHU216HW,2013-01-20 23:44:00,
2013-01-20 15:49:00,56.9,36.3,30.14,NNE,23,9.2,9.2,46,0.00,,,0.00,WUHU216HW,2013-01-20 23:49:00,
2013-01-20 15:54:00,56.9,36.8,30.13,NE,45,7.6,9.2,47,0.00,,,0.00,WUHU216HW,2013-01-20 23:54:00,
2013-01-20 15:59:00,56.9,37.4,30.14,NNE,23,4.0,9.2,48,0.00,,,0.00,WUHU216HW,2013-01-20 23:59:00,
2013-01-20 16:04:00,56.9,38.0,30.14,NNE,23,2.9,5.4,49,0.00,,,0.00,WUHU216HW,2013-01-21 00:04:00,
2013-01-20 16:09:00,56.7,37.2,30.14,North,0,4.0,5.4,48,0.00,,,0.00,WUHU216HW,2013-01-21 00:09:00,
2013-01-20 16:14:00,56.7,37.8,30.14,NNE,23,4.7,5.4,49,0.00,,,0.00,WUHU216HW,2013-01-21 00:14:00,
2013-01-20 16:19:00,56.7,37.8,30.14,NE,45,4.0,4.7,49,0.00,,,0.00,WUHU216HW,2013-01-21 00:19:00,
2013-01-20 16:24:00,56.5,37.6,30.14,NNE,23,5.4,5.4,49,0.00,,,0.00,WUHU216HW,2013-01-21 00:24:00,
2013-01-20 16:29:00,56.3,37.5,30.14,NNE,23,4.5,6.5,49,0.00,,,0.00,WUHU216HW,2013-01-21 00:29:00,
2013-01-20 16:34:00,56.2,36.6,30.14,NE,45,5.4,6.5,48,0.00,,,0.00,WUHU216HW,2013-01-21 00:34:00,
2013-01-20 16:39:00,56.0,36.5,30.14,NNE,23,3.8,5.4,48,0.00,,,0.00,WUHU216HW,2013-01-21 00:39:00,
2013-01-20 16:44:00,55.8,36.9,30.14,NNE,23,2.5,4.7,49,0.00,,,0.00,WUHU216HW,2013-01-21 00:44:00,
2013-01-20 16:49:00,55.6,36.7,30.14,NNE,23,2.5,4.0,49,0.00,,,0.00,WUHU216HW,2013-01-21 00:49:00,
2013-01-20 16:54:00,55.3,36.9,30.14,NE,45,1.8,4.0,50,0.00,,,0.00,WUHU216HW,2013-01-21 00:54:00,
2013-01-20 16:59:00,55.1,36.7,30.14,East,90,1.1,3.4,50,0.00,,,0.00,WUHU216HW,2013-01-21 00:59:00,
2013-01-20 17:04:00,54.7,36.5,30.14,ENE,68,1.1,1.3,50,0.00,,,0.00,WUHU216HW,2013-01-21 01:04:00,
2013-01-20 17:09:00,54.2,35.9,30.15,NE,45,1.1,1.6,50,0.00,,,0.00,WUHU216HW,2013-01-21 01:09:00,
2013-01-20 17:14:00,53.6,35.5,30.14,ENE,68,1.1,1.8,50,0.00,,,0.00,WUHU216HW,2013-01-21 01:14:00,
2013-01-20 17:19:00,53.3,35.1,30.14,SSE,158,0.9,1.8,50,0.00,,,0.00,WUHU216HW,2013-01-21 01:19:00,
2013-01-20 17:24:00,52.7,35.1,30.13,SE,135,0.4,1.8,51,0.00,,,0.00,WUHU216HW,2013-01-21 01:24:00,
2013-01-20 17:29:00,52.4,34.7,30.13,SE,135,1.3,1.3,51,0.00,,,0.00,WUHU216HW,2013-01-21 01:29:00,
2013-01-20 17:34:00,51.5,34.4,30.13,ESE,113,2.5,2.5,52,0.00,,,0.00,WUHU216HW,2013-01-21 01:34:00,
2013-01-20 17:39:00,50.8,33.8,30.13,ESE,113,2.9,2.9,52,0.00,,,0.00,WUHU216HW,2013-01-21 01:39:00,
2013-01-20 17:44:00,50.4,33.5,30.12,ESE,113,3.4,3.4,52,0.00,,,0.00,WUHU216HW,2013-01-21 01:44:00,
2013-01-20 17:49:00,48.8,33.3,30.12,ESE,113,3.6,4.0,55,0.00,,,0.00,WUHU216HW,2013-01-21 01:49:00,
2013-01-20 17:54:00,48.2,33.7,30.13,East,90,1.8,3.6,57,0.00,,,0.00,WUHU216HW,2013-01-21 01:54:00,
2013-01-20 17:59:00,47.7,33.2,30.13,ESE,113,2.7,2.9,57,0.00,,,0.00,WUHU216HW,2013-01-21 01:59:00,
2013-01-20 18:04:00,47.3,33.3,30.13,ESE,113,3.6,4.0,58,0.00,,,0.00,WUHU216HW,2013-01-21 02:04:00,
2013-01-20 18:09:00,46.8,33.2,30.14,ESE,113,2.7,4.0,59,0.00,,,0.00,WUHU216HW,2013-01-21 02:09:00,
2013-01-20 18:14:00,46.4,32.9,30.14,ESE,113,4.0,4.3,59,0.00,,,0.00,WUHU216HW,2013-01-21 02:14:00,
2013-01-20 18:19:00,45.9,33.2,30.14,ESE,113,2.7,5.4,61,0.00,,,0.00,WUHU216HW,2013-01-21 02:19:00,
2013-01-20 18:24:00,45.4,33.1,30.14,ESE,113,3.8,5.4,62,0.00,,,0.00,WUHU216HW,2013-01-21 02:24:00,
2013-01-20 18:29:00,45.2,33.3,30.14,ESE,113,1.6,3.8,63,0.00,,,0.00,WUHU216HW,2013-01-21 02:29:00,
2013-01-20 18:34:00,45.0,33.1,30.14,ESE,113,1.6,3.1,63,0.00,,,0.00,WUHU216HW,2013-01-21 02:34:00,
2013-01-20 18:39:00,44.6,32.9,30.14,ESE,113,1.1,1.8,63,0.00,,,0.00,WUHU216HW,2013-01-21 02:39:00,
2013-01-20 18:44:00,44.5,32.7,30.14,East,90,1.1,2.0,63,0.00,,,0.00,WUHU216HW,2013-01-21 02:44:00,
2013-01-20 18:49:00,44.3,33.2,30.15,East,90,1.8,2.0,65,0.00,,,0.00,WUHU216HW,2013-01-21 02:49:00,
2013-01-20 18:54:00,44.3,34.0,30.15,East,90,1.8,2.5,67,0.00,,,0.00,WUHU216HW,2013-01-21 02:54:00,
2013-01-20 18:59:00,44.3,33.2,30.15,East,90,2.0,2.5,65,0.00,,,0.00,WUHU216HW,2013-01-21 02:59:00,
2013-01-20 19:04:00,43.9,32.9,30.15,SE,135,0.9,2.5,65,0.00,,,0.00,WUHU216HW,2013-01-21 03:04:00,
2013-01-20 19:09:00,43.7,32.8,30.15,SE,135,1.1,2.0,65,0.00,,,0.00,WUHU216HW,2013-01-21 03:09:00,
2013-01-20 19:14:00,43.6,32.6,30.15,ESE,113,1.1,1.1,65,0.00,,,0.00,WUHU216HW,2013-01-21 03:14:00,
2013-01-20 19:19:00,43.2,32.2,30.15,ESE,113,1.1,1.6,65,0.00,,,0.00,WUHU216HW,2013-01-21 03:19:00,
2013-01-20 19:24:00,42.8,31.9,30.15,ESE,113,2.5,2.5,65,0.00,,,0.00,WUHU216HW,2013-01-21 03:24:00,
2013-01-20 19:29:00,42.7,31.7,30.15,ESE,113,1.8,2.5,65,0.00,,,0.00,WUHU216HW,2013-01-21 03:29:00,
2013-01-20 19:34:00,42.1,31.6,30.15,ESE,113,1.6,2.5,66,0.00,,,0.00,WUHU216HW,2013-01-21 03:34:00,
2013-01-20 19:39:00,42.1,31.6,30.15,SE,135,0.9,2.0,66,0.00,,,0.00,WUHU216HW,2013-01-21 03:39:00,
2013-01-20 19:44:00,41.8,31.2,30.15,ESE,113,2.0,2.2,66,0.00,,,0.00,WUHU216HW,2013-01-21 03:44:00,
2013-01-20 19:49:00,41.6,31.4,30.15,NE,45,1.6,2.2,67,0.00,,,0.00,WUHU216HW,2013-01-21 03:49:00,
2013-01-20 19:54:00,41.4,32.4,30.15,NE,45,3.1,3.4,70,0.00,,,0.00,WUHU216HW,2013-01-21 03:54:00,
2013-01-20 19:59:00,41.6,32.2,30.15,NE,45,1.8,3.4,69,0.00,,,0.00,WUHU216HW,2013-01-21 03:59:00,
2013-01-20 20:04:00,41.6,31.4,30.15,East,90,0.7,1.8,67,0.00,,,0.00,WUHU216HW,2013-01-21 04:04:00,
2013-01-20 20:09:00,41.4,31.2,30.15,East,90,0.0,1.6,67,0.00,,,0.00,WUHU216HW,2013-01-21 04:09:00,
2013-01-20 20:14:00,41.2,31.1,30.16,East,90,0.0,0.4,67,0.00,,,0.00,WUHU216HW,2013-01-21 04:14:00,
2013-01-20 20:19:00,40.7,30.5,30.16,East,90,1.1,1.1,67,0.00,,,0.00,WUHU216HW,2013-01-21 04:19:00,
2013-01-20 20:24:00,40.5,30.3,30.16,ESE,113,1.1,1.6,67,0.00,,,0.00,WUHU216HW,2013-01-21 04:24:00,
2013-01-20 20:29:00,40.1,30.0,30.16,SE,135,0.9,1.6,67,0.00,,,0.00,WUHU216HW,2013-01-21 04:29:00,
2013-01-20 20:34:00,39.8,29.6,30.16,SSE,158,0.9,1.6,67,0.00,,,0.00,WUHU216HW,2013-01-21 04:34:00,
2013-01-20 20:39:00,39.6,29.4,30.16,SE,135,0.2,1.6,67,0.00,,,0.00,WUHU216HW,2013-01-21 04:39:00,
2013-01-20 20:44:00,39.4,29.3,30.16,SE,135,1.1,1.3,67,0.00,,,0.00,WUHU216HW,2013-01-21 04:44:00,
2013-01-20 20:49:00,39.2,29.1,30.16,SE,135,0.0,1.3,67,0.00,,,0.00,WUHU216HW,2013-01-21 04:49:00,
2013-01-20 20:54:00,39.2,29.1,30.16,ESE,113,1.3,1.6,67,0.00,,,0.00,WUHU216HW,2013-01-21 04:54:00,
2013-01-20 20:59:00,38.9,28.8,30.17,SSE,158,1.1,1.6,67,0.00,,,0.00,WUHU216HW,2013-01-21 04:59:00,
2013-01-20 21:01:00,38.9,28.8,30.17,SSE,158,0.9,1.6,67,0.00,,,0.00,WUHU216HW,2013-01-21 05:01:00,
2013-01-20 21:03:00,38.9,28.8,30.17,SSE,158,0.7,1.3,67,0.00,,,0.00,WUHU216HW,2013-01-21 05:03:00,
2013-01-20 21:08:00,38.5,28.4,30.17,South,180,0.0,1.6,67,0.00,,,0.00,WUHU216HW,2013-01-21 05:08:00,
2013-01-20 21:13:00,38.5,28.4,30.16,South,180,0.0,1.6,67,0.00,,,0.00,WUHU216HW,2013-01-21 05:13:00,
2013-01-20 21:18:00,38.3,28.3,30.16,SW,225,1.1,1.1,67,0.00,,,0.00,WUHU216HW,2013-01-21 05:18:00,
2013-01-20 21:23:00,38.0,28.0,30.17,SSW,203,2.5,2.5,67,0.00,,,0.00,WUHU216HW,2013-01-21 05:23:00,
2013-01-20 21:28:00,37.8,27.8,30.17,SSW,203,0.7,2.5,67,0.00,,,0.00,WUHU216HW,2013-01-21 05:28:00,
2013-01-20 21:33:00,37.6,27.6,30.17,SSW,203,0.7,2.5,67,0.00,,,0.00,WUHU216HW,2013-01-21 05:33:00,
2013-01-20 21:38:00,37.4,27.9,30.17,South,180,0.0,0.7,68,0.00,,,0.00,WUHU216HW,2013-01-21 05:38:00,
2013-01-20 21:43:00,37.1,27.6,30.17,South,180,0.0,0.7,68,0.00,,,0.00,WUHU216HW,2013-01-21 05:43:00,
2013-01-20 21:48:00,37.1,27.9,30.17,East,90,0.9,0.9,69,0.00,,,0.00,WUHU216HW,2013-01-21 05:48:00,
2013-01-20 21:53:00,36.7,27.2,30.17,East,90,0.0,0.9,68,0.00,,,0.00,WUHU216HW,2013-01-21 05:53:00,
2013-01-20 21:58:00,36.7,27.6,30.17,SE,135,0.0,0.7,69,0.00,,,0.00,WUHU216HW,2013-01-21 05:58:00,
2013-01-20 22:03:00,36.4,27.2,30.17,SE,135,0.0,0.4,69,0.00,,,0.00,WUHU216HW,2013-01-21 06:03:00,
2013-01-20 22:08:00,36.2,27.0,30.17,ENE,68,1.1,1.1,69,0.00,,,0.00,WUHU216HW,2013-01-21 06:08:00,
2013-01-20 22:13:00,36.0,27.2,30.17,ENE,68,2.0,2.2,70,0.00,,,0.00,WUHU216HW,2013-01-21 06:13:00,
2013-01-20 22:18:00,36.0,27.6,30.17,East,90,0.9,2.2,71,0.00,,,0.00,WUHU216HW,2013-01-21 06:18:00,
2013-01-20 22:23:00,36.0,27.6,30.17,ESE,113,0.4,2.0,71,0.00,,,0.00,WUHU216HW,2013-01-21 06:23:00,
2013-01-20 22:28:00,35.8,27.0,30.17,ESE,113,0.0,0.4,70,0.00,,,0.00,WUHU216HW,2013-01-21 06:28:00,
2013-01-20 22:33:00,35.8,27.4,30.17,ENE,68,0.9,0.9,71,0.00,,,0.00,WUHU216HW,2013-01-21 06:33:00,
2013-01-20 22:38:00,35.8,27.4,30.17,ESE,113,1.3,1.6,71,0.00,,,0.00,WUHU216HW,2013-01-21 06:38:00,
2013-01-20 22:43:00,36.0,27.6,30.17,East,90,0.4,1.6,71,0.00,,,0.00,WUHU216HW,2013-01-21 06:43:00,
2013-01-20 22:48:00,36.0,27.6,30.17,East,90,1.1,1.6,71,0.00,,,0.00,WUHU216HW,2013-01-21 06:48:00,
2013-01-20 22:53:00,35.8,27.4,30.17,East,90,1.6,1.6,71,0.00,,,0.00,WUHU216HW,2013-01-21 06:53:00,
2013-01-20 22:58:00,35.8,27.4,30.17,East,90,1.1,1.6,71,0.00,,,0.00,WUHU216HW,2013-01-21 06:58:00,
2013-01-20 23:03:00,35.8,27.6,30.17,ENE,68,1.3,1.6,72,0.00,,,0.00,WUHU216HW,2013-01-21 07:03:00,
2013-01-20 23:08:00,35.8,27.6,30.17,East,90,1.8,1.8,72,0.00,,,0.00,WUHU216HW,2013-01-21 07:08:00,
2013-01-20 23:13:00,35.8,27.6,30.17,ENE,68,0.7,1.8,72,0.00,,,0.00,WUHU216HW,2013-01-21 07:13:00,
2013-01-20 23:18:00,36.0,27.8,30.17,ENE,68,1.1,1.3,72,0.00,,,0.00,WUHU216HW,2013-01-21 07:18:00,
2013-01-20 23:23:00,36.0,27.8,30.17,East,90,0.0,1.3,72,0.00,,,0.00,WUHU216HW,2013-01-21 07:23:00,
2013-01-20 23:28:00,35.8,27.4,30.17,ENE,68,0.9,1.1,71,0.00,,,0.00,WUHU216HW,2013-01-21 07:28:00,
2013-01-20 23:33:00,35.6,27.2,30.17,ENE,68,1.1,1.1,71,0.00,,,0.00,WUHU216HW,2013-01-21 07:33:00,
2013-01-20 23:38:00,35.6,27.2,30.17,ESE,113,1.6,1.6,71,0.00,,,0.00,WUHU216HW,2013-01-21 07:38:00,
2013-01-20 23:43:00,35.3,26.8,30.16,ESE,113,1.1,1.6,71,0.00,,,0.00,WUHU216HW,2013-01-21 07:43:00,
2013-01-20 23:48:00,35.1,26.7,30.16,SE,135,1.1,1.6,71,0.00,,,0.00,WUHU216HW,2013-01-21 07:48:00,
2013-01-20 23:53:00,34.9,26.5,30.16,SE,135,0.4,1.6,71,0.00,,,0.00,WUHU216HW,2013-01-21 07:53:00,
2013-01-20 23:58:00,34.9,26.5,30.16,SE,135,0.0,1.6,71,0.00,,,0.00,WUHU216HW,2013-01-21 07:58:00,